Terminal Aerodrome Forecast
Issued by NWS

Home | Current Version | Previous Version | Text Only | Print | Product List | Glossary On
Versions: 1 2 3 4 5 6 7 8 9 10 11 12 13 14
000
FTUS45 KTFX 031737
TAFBZN
TAF
KBZN 031737Z 0318/0418 VRB06KT P6SM VCSH SCT090 BKN180
     FM040300 26011KT P6SM -SHRA SCT025 OVC060
     FM041500 25004KT P6SM VCSH SCT040 OVC070=

USA.gov is the U.S. government's official web portal to all federal, state and local government web resources and services.